createdAt,value
2018-07-09T00:00:28.978Z,0.00
2018-07-09T00:01:28.886Z,0.00
2018-07-09T00:02:28.792Z,0.00
2018-07-09T00:03:28.705Z,0.00
2018-07-09T00:04:28.617Z,0.00
2018-07-09T00:05:28.551Z,0.00
2018-07-09T00:06:28.430Z,0.00
2018-07-09T00:07:28.341Z,0.00
2018-07-09T00:08:28.248Z,0.00
2018-07-09T00:09:28.157Z,0.00
2018-07-09T00:10:28.099Z,0.00
2018-07-09T00:11:28.073Z,0.00
2018-07-09T00:12:27.889Z,0.00
2018-07-09T00:13:27.797Z,0.00
2018-07-09T00:14:27.708Z,0.00
2018-07-09T00:15:27.647Z,0.00
2018-07-09T00:16:27.526Z,0.00
2018-07-09T00:17:27.434Z,0.00
2018-07-09T00:18:27.440Z,0.00
2018-07-09T00:19:27.254Z,0.00
2018-07-09T00:20:27.193Z,0.00
2018-07-09T00:21:27.074Z,0.00
2018-07-09T00:22:26.983Z,0.00
2018-07-09T00:23:26.892Z,0.00
2018-07-09T00:24:26.801Z,0.00
2018-07-09T00:25:26.840Z,0.00
2018-07-09T00:26:26.623Z,0.00
2018-07-09T00:27:26.529Z,0.00
2018-07-09T00:28:26.440Z,0.00
2018-07-09T00:29:26.351Z,0.00
2018-07-09T00:30:26.260Z,0.00
2018-07-09T00:31:26.199Z,0.00
2018-07-09T00:32:26.185Z,0.00
2018-07-09T00:33:25.988Z,0.00
2018-07-09T00:34:25.899Z,0.00
2018-07-09T00:35:25.810Z,0.00
2018-07-09T00:36:25.752Z,0.00
2018-07-09T00:37:25.628Z,0.00
2018-07-09T00:38:25.537Z,0.00
2018-07-09T00:39:25.554Z,0.00
2018-07-09T00:40:25.358Z,0.00
2018-07-09T00:41:25.296Z,0.00
2018-07-09T00:42:25.175Z,0.00
2018-07-09T00:43:25.086Z,0.00
2018-07-09T00:44:24.996Z,0.00
2018-07-09T00:45:24.909Z,0.00
2018-07-09T00:46:24.950Z,0.00
2018-07-09T00:47:24.724Z,0.00
2018-07-09T00:48:24.635Z,0.00
2018-07-09T00:49:24.541Z,0.00
2018-07-09T00:50:24.452Z,0.00
2018-07-09T00:51:24.393Z,0.00
2018-07-09T00:52:24.272Z,0.00
2018-07-09T00:53:24.272Z,0.00
2018-07-09T00:54:24.092Z,0.00
2018-07-09T00:55:24.001Z,0.00
2018-07-09T00:56:23.941Z,0.00
2018-07-09T00:57:23.821Z,0.00
2018-07-09T00:58:23.731Z,0.00
2018-07-09T00:59:23.647Z,0.00
2018-07-09T01:00:23.660Z,0.00
2018-07-09T01:01:23.488Z,0.00
2018-07-09T01:02:23.367Z,0.00
2018-07-09T01:03:23.277Z,0.00
2018-07-09T01:04:23.187Z,0.00
2018-07-09T01:05:23.096Z,0.00
2018-07-09T01:06:23.045Z,0.00
2018-07-09T01:07:23.012Z,0.00
2018-07-09T01:08:22.827Z,0.00
2018-07-09T01:09:22.735Z,0.00
2018-07-09T01:10:22.642Z,0.00
2018-07-09T01:11:22.584Z,0.00
2018-07-09T01:12:22.464Z,0.00
2018-07-09T01:13:22.372Z,0.00
2018-07-09T01:14:22.376Z,0.00
2018-07-09T01:15:22.190Z,0.00
2018-07-09T01:16:22.133Z,0.00
2018-07-09T01:17:22.008Z,0.00
2018-07-09T01:18:21.919Z,0.00
2018-07-09T01:19:21.831Z,0.00
2018-07-09T01:20:21.768Z,0.00
2018-07-09T01:21:21.649Z,0.00
2018-07-09T01:22:21.586Z,0.00
2018-07-09T01:23:21.466Z,0.00
2018-07-09T01:24:21.376Z,0.00
2018-07-09T01:25:21.285Z,0.00
2018-07-09T01:26:21.233Z,0.00
2018-07-09T01:27:21.104Z,0.00
2018-07-09T01:28:21.108Z,0.00
2018-07-09T01:29:20.921Z,0.00
2018-07-09T01:30:20.832Z,0.00
2018-07-09T01:31:20.745Z,0.00
2018-07-09T01:32:20.687Z,0.00
2018-07-09T01:33:20.557Z,0.00
2018-07-09T01:34:20.467Z,0.00
2018-07-09T01:35:20.467Z,0.00
2018-07-09T01:36:20.284Z,0.00
2018-07-09T01:37:20.227Z,0.00
2018-07-09T01:38:20.104Z,0.00
2018-07-09T01:39:20.012Z,0.00
2018-07-09T01:40:19.922Z,0.00
2018-07-09T01:41:19.832Z,0.00
2018-07-09T01:42:19.773Z,0.00
2018-07-09T01:43:19.649Z,0.00
2018-07-09T01:44:19.558Z,0.00
2018-07-09T01:45:19.469Z,0.00
2018-07-09T01:46:19.378Z,0.00
2018-07-09T01:47:19.322Z,0.00
2018-07-09T01:48:19.194Z,0.00
2018-07-09T01:49:19.105Z,0.00
2018-07-09T01:50:19.015Z,0.00
2018-07-09T01:51:18.923Z,0.00
2018-07-09T01:52:18.865Z,0.00
2018-07-09T01:53:18.755Z,0.00
2018-07-09T01:54:18.653Z,0.00
2018-07-09T01:55:18.558Z,0.00
2018-07-09T01:56:18.466Z,0.00
2018-07-09T01:57:18.407Z,0.00
2018-07-09T01:58:18.285Z,0.00
2018-07-09T01:59:18.192Z,0.00
2018-07-09T02:00:18.103Z,0.00
2018-07-09T02:01:18.012Z,0.00
2018-07-09T02:02:17.954Z,0.00
2018-07-09T02:03:17.830Z,0.00
2018-07-09T02:04:17.739Z,0.00
2018-07-09T02:05:17.647Z,0.00
2018-07-09T02:06:17.554Z,0.00
2018-07-09T02:07:17.499Z,0.00
2018-07-09T02:08:17.376Z,0.00
2018-07-09T02:09:17.282Z,0.00
2018-07-09T02:10:17.195Z,0.00
2018-07-09T02:11:17.107Z,0.00
2018-07-09T02:12:17.042Z,0.00
2018-07-09T02:13:16.920Z,0.00
2018-07-09T02:14:16.828Z,0.00
2018-07-09T02:15:16.738Z,0.00
2018-07-09T02:16:16.650Z,0.00
2018-07-09T02:17:16.591Z,0.00
2018-07-09T02:18:16.468Z,0.00
2018-07-09T02:19:16.375Z,0.00
2018-07-09T02:20:16.284Z,0.00
2018-07-09T02:21:16.198Z,0.00
2018-07-09T02:22:16.137Z,0.00
2018-07-09T02:23:16.015Z,0.00
2018-07-09T02:24:15.922Z,0.00
2018-07-09T02:25:15.827Z,0.00
2018-07-09T02:26:15.738Z,0.00
2018-07-09T02:27:15.680Z,4.00
2018-07-09T02:28:15.558Z,4.00
2018-07-09T02:29:15.468Z,4.00
2018-07-09T02:30:15.381Z,0.00
2018-07-09T02:31:15.289Z,4.00
2018-07-09T02:32:15.198Z,4.00
2018-07-09T02:33:15.132Z,4.00
2018-07-09T02:34:15.017Z,4.00
2018-07-09T02:35:14.921Z,4.00
2018-07-09T02:36:14.834Z,4.00
2018-07-09T02:37:14.743Z,8.00
2018-07-09T02:38:14.684Z,8.00
2018-07-09T02:39:14.560Z,4.00
2018-07-09T02:40:14.467Z,12.00
2018-07-09T02:41:14.374Z,12.00
2018-07-09T02:42:14.292Z,12.00
2018-07-09T02:43:14.226Z,16.00
2018-07-09T02:44:14.105Z,16.00
2018-07-09T02:45:14.030Z,16.00
2018-07-09T02:46:13.924Z,20.00
2018-07-09T02:47:13.835Z,24.00
2018-07-09T02:48:13.777Z,24.00
2018-07-09T02:49:13.742Z,28.00
2018-07-09T02:50:13.561Z,32.00
2018-07-09T02:51:13.468Z,36.00
2018-07-09T02:52:13.382Z,44.00
2018-07-09T02:53:13.322Z,48.00
2018-07-09T02:54:13.208Z,56.00
2018-07-09T02:55:13.111Z,60.00
2018-07-09T02:56:13.015Z,68.00
2018-07-09T02:57:12.924Z,76.00
2018-07-09T02:58:12.962Z,80.00
2018-07-09T02:59:12.743Z,88.00
2018-07-09T03:00:12.652Z,96.00
2018-07-09T03:01:12.660Z,108.00
2018-07-09T03:02:12.476Z,120.00
2018-07-09T03:03:12.409Z,128.00
2018-07-09T03:04:12.287Z,140.00
2018-07-09T03:05:12.197Z,152.00
2018-07-09T03:06:12.107Z,168.00
2018-07-09T03:07:12.016Z,180.00
2018-07-09T03:08:11.956Z,192.00
2018-07-09T03:09:11.846Z,208.00
2018-07-09T03:10:11.742Z,224.00
2018-07-09T03:11:11.651Z,244.00
2018-07-09T03:12:11.656Z,260.00
2018-07-09T03:13:11.498Z,280.00
2018-07-09T03:14:11.378Z,300.00
2018-07-09T03:15:11.291Z,320.00
2018-07-09T03:16:11.215Z,340.00
2018-07-09T03:17:11.106Z,364.00
2018-07-09T03:18:11.049Z,392.00
2018-07-09T03:19:11.037Z,416.00
2018-07-09T03:20:10.842Z,448.00
2018-07-09T03:21:10.742Z,476.00
2018-07-09T03:22:10.653Z,512.00
2018-07-09T03:23:10.595Z,548.00
2018-07-09T03:24:10.476Z,576.00
2018-07-09T03:25:10.382Z,608.00
2018-07-09T03:26:10.405Z,640.00
2018-07-09T03:27:10.199Z,672.00
2018-07-09T03:28:10.144Z,712.00
2018-07-09T03:29:10.016Z,748.00
2018-07-09T03:30:09.925Z,788.00
2018-07-09T03:31:09.834Z,820.00
2018-07-09T03:32:09.748Z,852.00
2018-07-09T03:33:09.778Z,868.00
2018-07-09T03:34:09.563Z,884.00
2018-07-09T03:35:09.472Z,892.00
2018-07-09T03:36:09.383Z,916.00
2018-07-09T03:37:09.292Z,924.00
2018-07-09T03:38:09.231Z,940.00
2018-07-09T03:39:09.111Z,960.00
2018-07-09T03:40:09.115Z,988.00
2018-07-09T03:41:08.929Z,1028.00
2018-07-09T03:42:08.842Z,1068.00
2018-07-09T03:43:08.753Z,1104.00
2018-07-09T03:44:08.689Z,1140.00
2018-07-09T03:45:08.565Z,1168.00
2018-07-09T03:46:08.474Z,1196.00
2018-07-09T03:47:08.488Z,1228.00
2018-07-09T03:48:08.298Z,1256.00
2018-07-09T03:49:08.239Z,1296.00
2018-07-09T03:50:08.115Z,1336.00
2018-07-09T03:51:08.021Z,1380.00
2018-07-09T03:52:07.937Z,1424.00
2018-07-09T03:53:07.843Z,1472.00
2018-07-09T03:54:07.879Z,1504.00
2018-07-09T03:55:07.662Z,1520.00
2018-07-09T03:56:07.572Z,1528.00
2018-07-09T03:57:07.480Z,1536.00
2018-07-09T03:58:07.401Z,1552.00
2018-07-09T03:59:07.337Z,1564.00
2018-07-09T04:00:07.211Z,1596.00
2018-07-09T04:01:07.217Z,1632.00
2018-07-09T04:02:07.077Z,1680.00
2018-07-09T04:03:06.941Z,1752.00
2018-07-09T04:04:06.884Z,1852.00
2018-07-09T04:05:06.759Z,1960.00
2018-07-09T04:06:06.670Z,2068.00
2018-07-09T04:07:06.580Z,2164.00
2018-07-09T04:08:06.604Z,2256.00
2018-07-09T04:09:06.430Z,2340.00
2018-07-09T04:10:06.310Z,2416.00
2018-07-09T04:11:06.222Z,2480.00
2018-07-09T04:12:06.128Z,2508.00
2018-07-09T04:13:06.036Z,2508.00
2018-07-09T04:14:05.979Z,2488.00
2018-07-09T04:15:05.949Z,2472.00
2018-07-09T04:16:05.769Z,2468.00
2018-07-09T04:17:05.676Z,2496.00
2018-07-09T04:18:05.588Z,2540.00
2018-07-09T04:19:05.542Z,2588.00
2018-07-09T04:20:05.407Z,2660.00
2018-07-09T04:21:05.320Z,2724.00
2018-07-09T04:22:05.223Z,2776.00
2018-07-09T04:23:05.135Z,2824.00
2018-07-09T04:24:05.077Z,2876.00
2018-07-09T04:25:04.955Z,2964.00
2018-07-09T04:26:04.862Z,3072.00
2018-07-09T04:27:04.777Z,3168.00
2018-07-09T04:28:04.686Z,3216.00
2018-07-09T04:29:04.625Z,3220.00
2018-07-09T04:30:04.504Z,3224.00
2018-07-09T04:31:04.414Z,3244.00
2018-07-09T04:32:04.327Z,3296.00
2018-07-09T04:33:04.233Z,3376.00
2018-07-09T04:34:04.188Z,3488.00
2018-07-09T04:35:04.054Z,3600.00
2018-07-09T04:36:03.965Z,3672.00
2018-07-09T04:37:03.872Z,3692.00
2018-07-09T04:38:03.782Z,3696.00
2018-07-09T04:39:03.725Z,3700.00
2018-07-09T04:40:03.600Z,3744.00
2018-07-09T04:41:03.511Z,3836.00
2018-07-09T04:42:03.420Z,3976.00
2018-07-09T04:43:03.331Z,4152.00
2018-07-09T04:44:03.270Z,4304.00
2018-07-09T04:45:03.150Z,4400.00
2018-07-09T04:46:03.059Z,4460.00
2018-07-09T04:47:02.972Z,4492.00
2018-07-09T04:48:02.883Z,4536.00
2018-07-09T04:49:02.790Z,4604.00
2018-07-09T04:50:02.730Z,4712.00
2018-07-09T04:51:02.609Z,4868.00
2018-07-09T04:52:02.521Z,5068.00
2018-07-09T04:53:02.428Z,5304.00
2018-07-09T04:54:02.372Z,5564.00
2018-07-09T04:55:02.251Z,5804.00
2018-07-09T04:56:02.159Z,5992.00
2018-07-09T04:57:02.070Z,6276.00
2018-07-09T04:58:01.977Z,6108.00
2018-07-09T04:59:01.891Z,6036.00
2018-07-09T05:00:01.828Z,6100.00
2018-07-09T05:01:01.708Z,6124.00
2018-07-09T05:02:01.615Z,6172.00
2018-07-09T05:03:01.533Z,6432.00
2018-07-09T05:04:01.438Z,6512.00
2018-07-09T05:05:01.455Z,6340.00
2018-07-09T05:06:01.259Z,6152.00
2018-07-09T05:07:01.168Z,6164.00
2018-07-09T05:08:01.078Z,6144.00
2018-07-09T05:09:00.986Z,6152.00
2018-07-09T05:10:00.928Z,6208.00
2018-07-09T05:11:00.808Z,6324.00
2018-07-09T05:12:00.720Z,6448.00
2018-07-09T05:13:00.658Z,6592.00
2018-07-09T05:14:00.541Z,6716.00
2018-07-09T05:15:00.484Z,6768.00
2018-07-09T05:16:00.361Z,6768.00
2018-07-09T05:17:00.274Z,6796.00
2018-07-09T05:18:00.182Z,7220.00
2018-07-09T05:19:00.093Z,7056.00
2018-07-09T05:20:00.044Z,6704.00
2018-07-09T05:20:59.912Z,6588.00
2018-07-09T05:21:59.825Z,6524.00
2018-07-09T05:22:59.734Z,6444.00
2018-07-09T05:23:59.674Z,6396.00
2018-07-09T05:24:59.592Z,6476.00
2018-07-09T05:25:59.465Z,6720.00
2018-07-09T05:26:59.376Z,6712.00
2018-07-09T05:27:59.290Z,6816.00
2018-07-09T05:28:59.197Z,7612.00
2018-07-09T05:29:59.142Z,7668.00
2018-07-09T05:30:59.025Z,7092.00
2018-07-09T05:31:58.960Z,8340.00
2018-07-09T05:32:58.843Z,10124.00
2018-07-09T05:33:58.765Z,8552.00
2018-07-09T05:34:58.699Z,7404.00
2018-07-09T05:35:58.578Z,7608.00
2018-07-09T05:36:58.484Z,7444.00
2018-07-09T05:37:58.488Z,7468.00
2018-07-09T05:38:58.309Z,7648.00
2018-07-09T05:39:58.264Z,8932.00
2018-07-09T05:40:58.131Z,8676.00
2018-07-09T05:41:58.044Z,9340.00
2018-07-09T05:42:57.959Z,10764.00
2018-07-09T05:43:57.867Z,10984.00
2018-07-09T05:44:57.806Z,10992.00
2018-07-09T05:45:57.690Z,10012.00
2018-07-09T05:46:57.673Z,8236.00
2018-07-09T05:47:57.794Z,7956.00
2018-07-09T05:48:57.423Z,7924.00
2018-07-09T05:49:57.365Z,7916.00
2018-07-09T05:50:57.246Z,8112.00
2018-07-09T05:51:57.163Z,8520.00
2018-07-09T05:52:57.069Z,8380.00
2018-07-09T05:53:56.980Z,8404.00
2018-07-09T05:54:56.922Z,8516.00
2018-07-09T05:55:56.806Z,8516.00
2018-07-09T05:56:56.715Z,8456.00
2018-07-09T05:57:56.628Z,8568.00
2018-07-09T05:58:56.567Z,8688.00
2018-07-09T05:59:56.549Z,8696.00
2018-07-09T06:00:56.392Z,8804.00
2018-07-09T06:01:56.271Z,9268.00
2018-07-09T06:02:56.198Z,8756.00
2018-07-09T06:03:56.097Z,8812.00
2018-07-09T06:04:56.013Z,9040.00
2018-07-09T06:05:55.953Z,9044.00
2018-07-09T06:06:55.926Z,9108.00
2018-07-09T06:07:55.743Z,9132.00
2018-07-09T06:08:55.659Z,9412.00
2018-07-09T06:09:55.572Z,10084.00
2018-07-09T06:10:55.513Z,9880.00
2018-07-09T06:11:55.391Z,9572.00
2018-07-09T06:12:55.304Z,9644.00
2018-07-09T06:13:55.320Z,9688.00
2018-07-09T06:14:55.129Z,9896.00
2018-07-09T06:15:55.073Z,10388.00
2018-07-09T06:16:54.950Z,11080.00
2018-07-09T06:17:54.863Z,12660.00
2018-07-09T06:18:54.776Z,11088.00
2018-07-09T06:19:54.690Z,10220.00
2018-07-09T06:20:54.725Z,10060.00
2018-07-09T06:21:54.509Z,10368.00
2018-07-09T06:22:54.423Z,10256.00
2018-07-09T06:23:54.340Z,10484.00
2018-07-09T06:24:54.250Z,10824.00
2018-07-09T06:25:54.192Z,11476.00
2018-07-09T06:26:54.069Z,12576.00
2018-07-09T06:27:54.084Z,14380.00
2018-07-09T06:28:53.894Z,15756.00
2018-07-09T06:29:53.807Z,15176.00
2018-07-09T06:30:53.750Z,13764.00
2018-07-09T06:31:53.633Z,12896.00
2018-07-09T06:32:53.544Z,12664.00
2018-07-09T06:33:53.456Z,12844.00
2018-07-09T06:34:53.473Z,12728.00
2018-07-09T06:35:53.319Z,12768.00
2018-07-09T06:36:53.193Z,12984.00
2018-07-09T06:37:53.110Z,13224.00
2018-07-09T06:38:53.022Z,13900.00
2018-07-09T06:39:52.934Z,14884.00
2018-07-09T06:40:52.878Z,18816.00
2018-07-09T06:41:52.860Z,22240.00
2018-07-09T06:42:52.674Z,31520.00
2018-07-09T06:43:52.585Z,41760.00
2018-07-09T06:44:52.495Z,45952.00
2018-07-09T06:45:52.441Z,45984.00
2018-07-09T06:46:52.321Z,45056.00
2018-07-09T06:47:52.238Z,44992.00
2018-07-09T06:48:52.246Z,44288.00
2018-07-09T06:49:52.060Z,43040.00
2018-07-09T06:50:52.008Z,46592.00
2018-07-09T06:51:51.890Z,49824.00
2018-07-09T06:52:51.801Z,51904.00
2018-07-09T06:53:51.716Z,51680.00
2018-07-09T06:54:51.635Z,46208.00
2018-07-09T06:55:51.594Z,42656.00
2018-07-09T06:56:51.460Z,38976.00
2018-07-09T06:57:51.374Z,34976.00
2018-07-09T06:58:51.296Z,35392.00
2018-07-09T06:59:51.207Z,34592.00
2018-07-09T07:00:51.123Z,40800.00
2018-07-09T07:01:51.068Z,46688.00
2018-07-09T07:02:50.951Z,47872.00
2018-07-09T07:03:50.869Z,49344.00
2018-07-09T07:04:50.783Z,50848.00
2018-07-09T07:05:50.702Z,48704.00
2018-07-09T07:06:50.649Z,49504.00
2018-07-09T07:07:50.539Z,50240.00
2018-07-09T07:08:50.550Z,52992.00
2018-07-09T07:09:50.368Z,56000.00
2018-07-09T07:10:50.281Z,59648.00
2018-07-09T07:11:50.229Z,57184.00
2018-07-09T07:12:50.116Z,56864.00
2018-07-09T07:13:50.035Z,60384.00
2018-07-09T07:14:49.951Z,61376.00
2018-07-09T07:15:49.874Z,59072.00
2018-07-09T07:16:49.820Z,55424.00
2018-07-09T07:17:49.705Z,53792.00
2018-07-09T07:18:49.626Z,53056.00
2018-07-09T07:19:49.543Z,55424.00
2018-07-09T07:20:49.458Z,56672.00
2018-07-09T07:21:49.414Z,59200.00
2018-07-09T07:22:49.295Z,58848.00
2018-07-09T07:23:49.215Z,60416.00
2018-07-09T07:24:49.134Z,58432.00
2018-07-09T07:25:49.053Z,56288.00
2018-07-09T07:26:49.003Z,56640.00
2018-07-09T07:27:48.892Z,58080.00
2018-07-09T07:28:48.818Z,47712.00
2018-07-09T07:29:48.730Z,48256.00
2018-07-09T07:30:48.653Z,51104.00
2018-07-09T07:31:48.610Z,56064.00
2018-07-09T07:32:48.552Z,58432.00
2018-07-09T07:33:48.407Z,58080.00
2018-07-09T07:34:48.332Z,48896.00
2018-07-09T07:35:48.251Z,55424.00
2018-07-09T07:36:48.200Z,61792.00
2018-07-09T07:37:48.089Z,70304.00
2018-07-09T07:38:48.009Z,69312.00
2018-07-09T07:39:47.929Z,63360.00
2018-07-09T07:40:47.848Z,63584.00
2018-07-09T07:41:47.801Z,62272.00
2018-07-09T07:42:47.688Z,60448.00
2018-07-09T07:43:47.620Z,62656.00
2018-07-09T07:44:47.557Z,59328.00
2018-07-09T07:45:47.450Z,60672.00
2018-07-09T07:46:47.428Z,58816.00
2018-07-09T07:47:47.294Z,54944.00
2018-07-09T07:48:47.220Z,45536.00
2018-07-09T07:49:47.131Z,38560.00
2018-07-09T07:50:47.051Z,41824.00
2018-07-09T07:51:47.010Z,36480.00
2018-07-09T07:52:46.893Z,45888.00
2018-07-09T07:53:46.814Z,71168.00
2018-07-09T07:54:46.734Z,71136.00
2018-07-09T07:55:46.677Z,56352.00
2018-07-09T07:56:46.607Z,62528.00
2018-07-09T07:57:46.499Z,42784.00
2018-07-09T07:58:46.417Z,80544.00
2018-07-09T07:59:46.336Z,76832.00
2018-07-09T08:00:46.257Z,64832.00
2018-07-09T08:01:46.207Z,82784.00
2018-07-09T08:02:46.101Z,62720.00
2018-07-09T08:03:46.021Z,79232.00
2018-07-09T08:04:45.943Z,58592.00
2018-07-09T08:05:45.858Z,59808.00
2018-07-09T08:06:45.813Z,90624.00
2018-07-09T08:07:45.701Z,34560.00
2018-07-09T08:08:45.621Z,93728.00
2018-07-09T08:09:45.561Z,89632.00
2018-07-09T08:10:45.464Z,83008.00
2018-07-09T08:11:49.004Z,78144.00
2018-07-09T08:13:13.472Z,68992.00
2018-07-09T08:13:45.274Z,78176.00
2018-07-09T08:14:45.165Z,29888.00
2018-07-09T08:15:45.070Z,74176.00
2018-07-09T08:16:44.995Z,73408.00
2018-07-09T08:17:44.943Z,64896.00
2018-07-09T08:18:44.835Z,65696.00
2018-07-09T08:19:44.759Z,28096.00
2018-07-09T08:20:44.678Z,56544.00
2018-07-09T08:21:44.599Z,78368.00
2018-07-09T08:22:44.559Z,76960.00
2018-07-09T08:23:44.440Z,75456.00
2018-07-09T08:24:44.391Z,43136.00
2018-07-09T08:25:44.544Z,35424.00
2018-07-09T08:26:44.204Z,31808.00
2018-07-09T08:27:44.159Z,73408.00
2018-07-09T08:28:44.048Z,41344.00
2018-07-09T08:29:43.971Z,41504.00
2018-07-09T08:30:43.890Z,90880.00
2018-07-09T08:31:43.816Z,95296.00
2018-07-09T08:32:43.854Z,84768.00
2018-07-09T08:33:43.651Z,60352.00
2018-07-09T08:34:43.572Z,67360.00
2018-07-09T08:35:43.494Z,55456.00
2018-07-09T08:36:43.414Z,37632.00
2018-07-09T08:37:43.367Z,32768.00
2018-07-09T08:38:43.259Z,31968.00
2018-07-09T08:39:43.274Z,32160.00
2018-07-09T08:40:43.099Z,24096.00
2018-07-09T08:41:43.022Z,48736.00
2018-07-09T08:42:42.976Z,59456.00
2018-07-09T08:43:42.864Z,68384.00
2018-07-09T08:44:42.783Z,67360.00
2018-07-09T08:45:42.707Z,68992.00
2018-07-09T08:46:42.718Z,69952.00
2018-07-09T08:47:42.585Z,72128.00
2018-07-09T08:48:42.465Z,72128.00
2018-07-09T08:49:42.401Z,75072.00
2018-07-09T08:50:42.309Z,79648.00
2018-07-09T08:51:42.226Z,85984.00
2018-07-09T08:52:42.178Z,93664.00
2018-07-09T08:53:42.179Z,87488.00
2018-07-09T08:54:41.989Z,39392.00
2018-07-09T08:55:41.910Z,42720.00
2018-07-09T08:56:41.831Z,70528.00
2018-07-09T08:57:41.780Z,77056.00
2018-07-09T08:58:41.671Z,79936.00
2018-07-09T08:59:41.594Z,78784.00
2018-07-09T09:00:41.606Z,77888.00
2018-07-09T09:01:41.433Z,72672.00
2018-07-09T09:02:41.385Z,79456.00
2018-07-09T09:03:41.303Z,37472.00
2018-07-09T09:04:41.192Z,33888.00
2018-07-09T09:05:41.115Z,35264.00
2018-07-09T09:06:41.037Z,35072.00
2018-07-09T09:07:41.080Z,60256.00
2018-07-09T09:08:40.879Z,54592.00
2018-07-09T09:09:40.801Z,39488.00
2018-07-09T09:10:40.718Z,37440.00
2018-07-09T09:11:40.642Z,61440.00
2018-07-09T09:12:40.590Z,36864.00
2018-07-09T09:13:40.480Z,86336.00
2018-07-09T09:14:40.496Z,95968.00
2018-07-09T09:15:40.324Z,38752.00
2018-07-09T09:16:40.266Z,102688.00
2018-07-09T09:17:40.220Z,99168.00
2018-07-09T09:18:40.087Z,97824.00
2018-07-09T09:19:40.008Z,99040.00
2018-07-09T09:20:39.932Z,105760.00
2018-07-09T09:21:39.942Z,104032.00
2018-07-09T09:22:39.804Z,104288.00
2018-07-09T09:23:39.691Z,99360.00
2018-07-09T09:24:39.612Z,96224.00
2018-07-09T09:25:39.554Z,77184.00
2018-07-09T09:26:39.454Z,87616.00
2018-07-09T09:27:39.379Z,70816.00
2018-07-09T09:28:39.411Z,53792.00
2018-07-09T09:29:39.219Z,38304.00
2018-07-09T09:30:39.144Z,38528.00
2018-07-09T09:31:39.124Z,48992.00
2018-07-09T09:32:38.989Z,71744.00
2018-07-09T09:33:38.939Z,85248.00
2018-07-09T09:34:38.831Z,76992.00
2018-07-09T09:35:38.754Z,74464.00
2018-07-09T09:36:38.675Z,46720.00
2018-07-09T09:37:38.595Z,41920.00
2018-07-09T09:38:38.551Z,64672.00
2018-07-09T09:39:38.442Z,62912.00
2018-07-09T09:40:38.363Z,32352.00
2018-07-09T09:41:38.287Z,27392.00
2018-07-09T09:42:38.300Z,59776.00
2018-07-09T09:43:38.162Z,27360.00
2018-07-09T09:44:38.050Z,47264.00
2018-07-09T09:45:37.975Z,57248.00
2018-07-09T09:46:37.895Z,67488.00
2018-07-09T09:47:37.818Z,30816.00
2018-07-09T09:48:37.771Z,28352.00
2018-07-09T09:49:37.757Z,56864.00
2018-07-09T09:50:37.584Z,63680.00
2018-07-09T09:51:37.504Z,61632.00
2018-07-09T09:52:37.425Z,60320.00
2018-07-09T09:53:37.378Z,30848.00
2018-07-09T09:54:37.269Z,36384.00
2018-07-09T09:55:37.195Z,65376.00
2018-07-09T09:56:37.110Z,73216.00
2018-07-09T09:57:37.031Z,84480.00
2018-07-09T09:58:36.982Z,85248.00
2018-07-09T09:59:36.875Z,82848.00
2018-07-09T10:00:36.813Z,77440.00
2018-07-09T10:01:36.715Z,72640.00
2018-07-09T10:02:36.640Z,76416.00
2018-07-09T10:03:36.589Z,71904.00
2018-07-09T10:04:36.478Z,74368.00
2018-07-09T10:05:36.397Z,84032.00
2018-07-09T10:06:36.377Z,92000.00
2018-07-09T10:07:36.239Z,90624.00
2018-07-09T10:08:36.207Z,91136.00
2018-07-09T10:09:36.081Z,82240.00
2018-07-09T10:10:36.005Z,30464.00
2018-07-09T10:11:35.925Z,29888.00
2018-07-09T10:12:35.845Z,58976.00
2018-07-09T10:13:35.798Z,66560.00
2018-07-09T10:14:35.689Z,35808.00
2018-07-09T10:15:35.609Z,69696.00
2018-07-09T10:16:35.545Z,74496.00
2018-07-09T10:17:35.455Z,81536.00
2018-07-09T10:18:35.405Z,74624.00
2018-07-09T10:19:35.293Z,73952.00
2018-07-09T10:20:35.215Z,61408.00
2018-07-09T10:21:35.141Z,28736.00
2018-07-09T10:22:35.059Z,29088.00
2018-07-09T10:23:35.083Z,30528.00
2018-07-09T10:24:34.901Z,32256.00
2018-07-09T10:25:34.822Z,57920.00
2018-07-09T10:26:34.745Z,79232.00
2018-07-09T10:27:34.665Z,53504.00
2018-07-09T10:28:34.625Z,86784.00
2018-07-09T10:29:34.508Z,59776.00
2018-07-09T10:30:34.433Z,68192.00
2018-07-09T10:31:34.349Z,83168.00
2018-07-09T10:32:34.270Z,81056.00
2018-07-09T10:33:34.224Z,93120.00
2018-07-09T10:34:34.115Z,37376.00
2018-07-09T10:35:34.036Z,104896.00
2018-07-09T10:36:33.953Z,95840.00
2018-07-09T10:37:33.876Z,101504.00
2018-07-09T10:38:33.828Z,112512.00
2018-07-09T10:39:33.770Z,102016.00
2018-07-09T10:40:33.637Z,96704.00
2018-07-09T10:41:33.561Z,60544.00
2018-07-09T10:42:33.483Z,86048.00
2018-07-09T10:43:33.433Z,85312.00
2018-07-09T10:44:33.325Z,80704.00
2018-07-09T10:45:33.247Z,75328.00
2018-07-09T10:46:33.167Z,71520.00
2018-07-09T10:47:33.090Z,29792.00
2018-07-09T10:48:33.013Z,55456.00
2018-07-09T10:49:32.966Z,36192.00
2018-07-09T10:50:32.857Z,74336.00
2018-07-09T10:51:32.777Z,69760.00
2018-07-09T10:52:32.696Z,25088.00
2018-07-09T10:53:32.621Z,62528.00
2018-07-09T10:54:32.570Z,83584.00
2018-07-09T10:55:32.460Z,80992.00
2018-07-09T10:56:32.381Z,79488.00
2018-07-09T10:57:32.311Z,70176.00
2018-07-09T10:58:32.318Z,33216.00
2018-07-09T10:59:32.178Z,79808.00
2018-07-09T11:00:32.067Z,84224.00
2018-07-09T11:01:31.986Z,67104.00
2018-07-09T11:02:31.908Z,64800.00
2018-07-09T11:03:31.833Z,64832.00
2018-07-09T11:04:31.781Z,72960.00
2018-07-09T11:05:31.784Z,96864.00
2018-07-09T11:06:31.594Z,102272.00
2018-07-09T11:07:31.514Z,108704.00
2018-07-09T11:08:31.435Z,95648.00
2018-07-09T11:09:31.387Z,88960.00
2018-07-09T11:10:31.277Z,37280.00
2018-07-09T11:11:31.202Z,100096.00
2018-07-09T11:12:31.213Z,95648.00
2018-07-09T11:13:31.041Z,110912.00
2018-07-09T11:14:30.996Z,108576.00
2018-07-09T11:15:30.883Z,41216.00
2018-07-09T11:16:30.817Z,41760.00
2018-07-09T11:17:30.727Z,80192.00
2018-07-09T11:18:30.648Z,91840.00
2018-07-09T11:19:30.698Z,94848.00
2018-07-09T11:20:30.494Z,88576.00
2018-07-09T11:21:30.417Z,92864.00
2018-07-09T11:22:30.337Z,99360.00
2018-07-09T11:23:30.256Z,93120.00
2018-07-09T11:24:30.208Z,47040.00
2018-07-09T11:25:30.099Z,28640.00
2018-07-09T11:26:30.115Z,101888.00
2018-07-09T11:27:29.941Z,92640.00
2018-07-09T11:28:29.864Z,77824.00
2018-07-09T11:29:29.821Z,78464.00
2018-07-09T11:30:29.708Z,31840.00
2018-07-09T11:31:29.631Z,66272.00
2018-07-09T11:32:29.549Z,57568.00
2018-07-09T11:33:29.564Z,54848.00
2018-07-09T11:34:29.430Z,52256.00
2018-07-09T11:35:29.319Z,55904.00
2018-07-09T11:36:29.276Z,65536.00
2018-07-09T11:37:29.165Z,72736.00
2018-07-09T11:38:29.081Z,80544.00
2018-07-09T11:39:29.002Z,59296.00
2018-07-09T11:40:29.051Z,55520.00
2018-07-09T11:41:28.847Z,71136.00
2018-07-09T11:42:28.767Z,73984.00
2018-07-09T11:43:28.689Z,82208.00
2018-07-09T11:44:28.613Z,88448.00
2018-07-09T11:45:28.563Z,94848.00
2018-07-09T11:46:28.452Z,92736.00
2018-07-09T11:47:28.467Z,95136.00
2018-07-09T11:48:28.296Z,112608.00
2018-07-09T11:49:28.217Z,108896.00
2018-07-09T11:50:28.170Z,101088.00
2018-07-09T11:51:28.058Z,22912.00
2018-07-09T11:52:27.978Z,47648.00
2018-07-09T11:53:27.899Z,100416.00
2018-07-09T11:54:27.821Z,100224.00
2018-07-09T11:55:27.774Z,99072.00
2018-07-09T11:56:27.667Z,98656.00
2018-07-09T11:57:27.587Z,95936.00
2018-07-09T11:58:27.507Z,98336.00
2018-07-09T11:59:27.429Z,101984.00
2018-07-09T12:00:27.382Z,107328.00
2018-07-09T12:01:27.269Z,100064.00
2018-07-09T12:02:27.193Z,62528.00
2018-07-09T12:03:27.119Z,52960.00
2018-07-09T12:04:27.038Z,94592.00
2018-07-09T12:05:26.991Z,80032.00
2018-07-09T12:06:26.875Z,96608.00
2018-07-09T12:07:26.800Z,100800.00
2018-07-09T12:08:26.720Z,105856.00
2018-07-09T12:09:26.645Z,107200.00
2018-07-09T12:10:26.595Z,100512.00